Terminal Aerodrome Forecast
Issued by NWS Wilmington, OH

Current Version | Previous Version | Graphics & Text | Print | Product List | Glossary On
Versions: 1 2 3 4 5 6 7 8 9 10 11 12 13 14 15 16 17 18 19 20 21 22
000
FTUS41 KILN 182100 AAA
TAFILN
TAF AMD
KILN 182112Z 1821/1918 24014G22KT P6SM BKN035
      TEMPO 1821/1823 2SM -SN BKN025
     FM182300 22010KT P6SM OVC040
     FM190900 20008KT P6SM BKN060
     FM191400 20016G24KT P6SM BKN080=

USA.gov is the U.S. government's official web portal to all federal, state and local government web resources and services.